Time;durP1;ratioP1;P1;durP2;ratioP2;P2;SDS_P1;SDS_P2;PMS_P1;PMS_P2;Temp;Humidity;BMP_temperature;BMP_pressure;BME280_temperature;BME280_humidity;BME280_pressure;Samples;Min_cycle;Max_cycle;Signal;HPM_P1;HPM_P2
2021/09/03 00:00:01;;;;;;;12.48;6.43;;;;;;;22.69;45.82;102046.72;5038156;28;20060;-64
2021/09/03 00:02:26;;;;;;;6.82;5.43;;;;;;;22.62;45.72;102041.06;5056664;28;20424;-63
2021/09/03 00:04:51;;;;;;;8.20;5.78;;;;;;;22.59;45.45;102041.41;5037907;28;20037;-64
2021/09/03 00:07:17;;;;;;;9.75;6.22;;;;;;;22.51;46.00;102030.53;5060359;28;20048;-63
2021/09/03 00:09:42;;;;;;;15.57;7.70;;;;;;;22.50;45.71;102042.47;5075994;28;20392;-63
2021/09/03 00:12:08;;;;;;;11.73;6.95;;;;;;;22.44;46.06;102029.56;5075468;28;20473;-64
2021/09/03 00:14:34;;;;;;;8.77;5.32;;;;;;;22.45;46.10;102033.97;5075930;28;20080;-64
2021/09/03 00:17:00;;;;;;;17.23;9.13;;;;;;;22.42;46.40;102034.31;5074892;28;20092;-64
2021/09/03 00:19:26;;;;;;;16.20;9.60;;;;;;;22.43;46.05;102029.72;5074207;28;20456;-64
2021/09/03 00:21:52;;;;;;;15.48;9.15;;;;;;;22.39;46.17;102018.28;5074379;28;20388;-64
2021/09/03 00:24:19;;;;;;;10.48;6.85;;;;;;;22.42;45.68;102026.13;5074499;28;20032;-63
2021/09/03 00:26:44;;;;;;;12.85;8.20;;;;;;;22.40;46.21;102014.53;5075835;28;20028;-64
2021/09/03 00:29:09;;;;;;;19.63;9.77;;;;;;;22.40;46.42;102025.47;5108241;28;20495;-63
2021/09/03 00:31:35;;;;;;;13.93;8.15;;;;;;;22.34;45.99;102012.50;5108253;28;20484;-64
2021/09/03 00:34:00;;;;;;;14.00;8.50;;;;;;;22.37;46.33;102019.50;5074375;28;20115;-63
2021/09/03 00:36:25;;;;;;;13.40;8.38;;;;;;;22.34;46.15;102009.78;5075340;28;20102;-64
2021/09/03 00:38:51;;;;;;;11.88;8.10;;;;;;;22.28;45.75;102013.22;5074997;28;20036;-64
2021/09/03 00:41:16;;;;;;;9.90;6.68;;;;;;;22.28;46.48;102009.66;5075604;28;20107;-64
2021/09/03 00:43:42;;;;;;;12.48;6.60;;;;;;;22.25;46.45;102013.56;5075276;28;20037;-64
2021/09/03 00:46:07;;;;;;;13.07;6.75;;;;;;;22.23;46.99;102012.88;5057243;28;20381;-63
2021/09/03 00:48:32;;;;;;;10.25;6.88;;;;;;;22.17;46.60;102007.28;5075234;28;20434;-64
2021/09/03 00:50:58;;;;;;;9.68;6.88;;;;;;;22.16;46.08;102011.91;5075249;28;20053;-63
2021/09/03 00:53:24;;;;;;;14.43;7.63;;;;;;;22.12;46.58;102004.22;5075212;28;20036;-63
2021/09/03 00:55:49;;;;;;;11.48;8.05;;;;;;;22.09;46.88;102005.44;5075027;28;20439;-64
2021/09/03 00:58:15;;;;;;;17.23;9.00;;;;;;;22.08;46.35;101997.44;5073294;28;20025;-63
2021/09/03 01:00:40;;;;;;;14.05;9.13;;;;;;;22.06;46.67;102000.31;5075110;28;20031;-63
2021/09/03 01:03:06;;;;;;;18.75;9.93;;;;;;;22.02;46.65;102004.44;5074952;28;20115;-63
2021/09/03 01:05:31;;;;;;;16.45;10.85;;;;;;;21.96;46.41;101997.81;5074983;28;20411;-64
2021/09/03 01:07:58;;;;;;;22.10;11.32;;;;;;;21.96;47.15;101999.69;5073182;28;20097;-63
2021/09/03 01:10:23;;;;;;;16.55;9.23;;;;;;;21.96;46.84;101996.94;5075226;28;20037;-64
2021/09/03 01:12:50;;;;;;;20.42;10.52;;;;;;;21.97;47.31;101985.84;5074032;28;20032;-63
2021/09/03 01:15:16;;;;;;;16.88;9.35;;;;;;;21.98;46.57;101981.25;5074835;28;20036;-63
2021/09/03 01:17:42;;;;;;;13.00;7.60;;;;;;;21.98;46.39;101986.69;5074391;28;20031;-63
2021/09/03 01:20:09;;;;;;;15.10;8.27;;;;;;;21.96;47.16;101978.72;5075089;28;20029;-63
2021/09/03 01:22:34;;;;;;;12.20;7.68;;;;;;;21.93;46.43;101983.66;5073313;28;20115;-63
2021/09/03 01:25:00;;;;;;;12.82;7.75;;;;;;;21.83;46.30;101977.53;5074592;28;20449;-63
2021/09/03 01:27:25;;;;;;;13.20;8.68;;;;;;;21.83;47.08;101982.97;5074980;28;20055;-63
2021/09/03 01:29:51;;;;;;;14.80;8.32;;;;;;;21.80;46.23;101977.88;5075117;28;20028;-63
2021/09/03 01:32:16;;;;;;;12.95;8.80;;;;;;;21.72;47.02;101969.72;5073306;28;20043;-63
2021/09/03 01:34:42;;;;;;;15.93;8.95;;;;;;;21.72;46.59;101980.63;5056526;28;20111;-64
2021/09/03 01:37:07;;;;;;;19.90;10.52;;;;;;;21.67;46.79;101975.66;5073657;28;20028;-64
2021/09/03 01:39:33;;;;;;;15.75;10.50;;;;;;;21.66;47.14;101967.66;5073569;28;20029;-63
2021/09/03 01:41:58;;;;;;;19.05;9.68;;;;;;;21.66;46.87;101973.13;5073396;28;20053;-63
2021/09/03 01:44:23;;;;;;;16.63;9.52;;;;;;;21.64;46.43;101972.41;5074812;28;20032;-63
2021/09/03 01:46:49;;;;;;;16.88;10.18;;;;;;;21.62;46.34;101971.75;5074654;28;20492;-63
2021/09/03 01:49:14;;;;;;;18.30;9.57;;;;;;;21.59;47.23;101967.50;5074683;28;20182;-63
2021/09/03 01:51:40;;;;;;;15.80;9.80;;;;;;;21.58;46.77;101973.13;5075184;28;20044;-63
2021/09/03 01:54:05;;;;;;;13.98;8.82;;;;;;;21.50;46.82;101949.44;5074729;28;20032;-63
2021/09/03 01:56:30;;;;;;;6.53;4.95;;;;;;;21.50;47.32;101963.06;5073963;28;20029;-63
2021/09/03 01:58:56;;;;;;;6.45;4.40;;;;;;;21.50;47.15;101959.53;5108033;28;20347;-63
2021/09/03 02:01:21;;;;;;;9.27;6.05;;;;;;;21.46;47.07;101964.47;5107246;28;20029;-63
2021/09/03 02:03:46;;;;;;;14.32;8.40;;;;;;;21.41;46.63;101967.69;5075000;28;20040;-63
2021/09/03 02:06:12;;;;;;;20.30;9.15;;;;;;;21.38;47.43;101962.56;5073550;28;20146;-63
2021/09/03 02:08:37;;;;;;;12.48;7.15;;;;;;;21.35;47.30;101962.94;5037591;28;20033;-63
2021/09/03 02:11:02;;;;;;;10.82;6.93;;;;;;;21.33;46.91;101964.97;5039536;28;20036;-63
2021/09/03 02:13:28;;;;;;;12.93;8.10;;;;;;;21.31;46.92;101956.13;5058832;28;20025;-63
2021/09/03 02:15:53;;;;;;;16.17;8.98;;;;;;;21.30;46.88;101959.03;5041085;28;20029;-63
2021/09/03 02:18:19;;;;;;;16.10;9.10;;;;;;;21.30;46.74;101959.84;5059223;28;20043;-63
2021/09/03 02:20:44;;;;;;;11.23;6.97;;;;;;;21.28;47.13;101959.19;5058963;28;20028;-63
2021/09/03 02:23:10;;;;;;;5.47;4.38;;;;;;;21.27;46.83;101960.19;5059278;28;20032;-63
2021/09/03 02:25:35;;;;;;;5.07;3.13;;;;;;;21.22;46.74;101956.28;5059178;28;20040;-63
2021/09/03 02:28:00;;;;;;;9.20;4.70;;;;;;;21.19;47.04;101951.19;5041752;28;20580;-63
2021/09/03 02:30:26;;;;;;;8.98;6.05;;;;;;;21.17;47.43;101953.22;5058850;28;20650;-63
2021/09/03 02:32:51;;;;;;;11.15;6.38;;;;;;;21.15;47.48;101953.41;5059014;28;20167;-63
2021/09/03 02:35:17;;;;;;;12.13;6.82;;;;;;;21.03;47.37;101941.09;5041091;28;20037;-63
2021/09/03 02:37:43;;;;;;;11.63;6.97;;;;;;;21.11;47.15;101954.75;5041095;28;20021;-63
2021/09/03 02:40:08;;;;;;;13.65;8.05;;;;;;;21.07;47.24;101950.69;5041372;28;20102;-63
2021/09/03 02:42:34;;;;;;;13.40;7.32;;;;;;;21.06;47.55;101948.94;5040895;28;20040;-63
2021/09/03 02:44:59;;;;;;;10.95;6.75;;;;;;;21.06;47.28;101956.25;5058636;28;20060;-63
2021/09/03 02:47:24;;;;;;;10.25;6.25;;;;;;;21.04;46.82;101959.16;5040505;28;20032;-63
2021/09/03 02:49:50;;;;;;;7.45;4.97;;;;;;;21.02;46.88;101954.91;5058271;28;20031;-63
2021/09/03 02:52:15;;;;;;;8.48;5.30;;;;;;;20.97;46.77;101949.94;5058201;28;20373;-63
2021/09/03 02:54:41;;;;;;;7.65;4.88;;;;;;;20.98;47.34;101954.38;5039948;28;20025;-63
2021/09/03 02:57:06;;;;;;;9.48;5.95;;;;;;;20.93;47.26;101945.88;5058920;28;20029;-64
2021/09/03 02:59:31;;;;;;;15.50;7.25;;;;;;;20.89;47.01;101947.22;5040236;28;20028;-63
2021/09/03 03:01:57;;;;;;;12.82;8.13;;;;;;;20.87;47.26;101944.69;5058483;28;20381;-63
2021/09/03 03:04:22;;;;;;;11.27;6.82;;;;;;;20.86;47.48;101942.09;5058289;28;20554;-63
2021/09/03 03:06:47;;;;;;;16.20;8.00;;;;;;;20.80;47.17;101935.47;5058401;28;20045;-63
2021/09/03 03:09:13;;;;;;;11.65;6.90;;;;;;;20.81;47.32;101937.19;5040030;28;20025;-63
2021/09/03 03:11:38;;;;;;;14.50;7.75;;;;;;;20.81;47.15;101939.91;5058397;28;20458;-63
2021/09/03 03:14:10;;;;;;;13.57;7.68;;;;;;;20.79;47.44;101928.31;5059028;28;20165;-63
2021/09/03 03:16:36;;;;;;;10.90;6.13;;;;;;;20.79;47.07;101927.47;5058022;28;20107;-63
2021/09/03 03:19:01;;;;;;;10.48;6.63;;;;;;;20.76;47.49;101925.94;5040032;28;20304;-63
2021/09/03 03:21:26;;;;;;;13.18;7.60;;;;;;;20.73;47.03;101930.88;5058017;28;20029;-63
2021/09/03 03:23:52;;;;;;;8.50;5.45;;;;;;;20.71;47.21;101924.75;5040268;28;20032;-63
2021/09/03 03:26:17;;;;;;;10.05;5.47;;;;;;;20.71;47.34;101920.16;5058061;28;20028;-63
2021/09/03 03:28:42;;;;;;;8.70;5.53;;;;;;;20.66;47.49;101921.69;5039742;28;20029;-63
2021/09/03 03:31:08;;;;;;;6.85;4.38;;;;;;;20.66;47.31;101921.69;5057788;28;20040;-63
2021/09/03 03:33:33;;;;;;;9.75;5.97;;;;;;;20.65;47.37;101917.25;5039309;28;20029;-63
2021/09/03 03:35:58;;;;;;;10.75;6.65;;;;;;;20.62;47.42;101909.41;5056955;28;20473;-64
2021/09/03 03:38:24;;;;;;;10.52;6.88;;;;;;;20.62;47.36;101914.84;5057201;28;20399;-63
2021/09/03 03:40:49;;;;;;;7.70;5.63;;;;;;;20.61;46.92;101913.13;5057175;28;20033;-63
2021/09/03 03:43:15;;;;;;;10.48;5.70;;;;;;;20.58;47.21;101913.47;5056493;28;20110;-63
2021/09/03 03:45:40;;;;;;;7.78;5.55;;;;;;;20.58;47.33;101919.78;5039718;28;20033;-63
2021/09/03 03:48:06;;;;;;;7.65;5.05;;;;;;;20.56;47.20;101907.34;5039702;28;20381;-63
2021/09/03 03:50:32;;;;;;;8.88;5.63;;;;;;;20.53;47.37;101904.97;5038940;28;20030;-63
2021/09/03 03:52:57;;;;;;;8.88;5.60;;;;;;;20.53;47.07;101899.50;5057287;28;20103;-63
2021/09/03 03:55:22;;;;;;;8.68;5.10;;;;;;;20.50;47.27;101897.13;5056940;28;20063;-63
2021/09/03 03:57:48;;;;;;;6.35;4.78;;;;;;;20.50;46.64;101899.84;5056686;28;20029;-63
2021/09/03 04:00:14;;;;;;;8.88;5.80;;;;;;;20.47;47.64;101895.59;5038835;28;20029;-63
2021/09/03 04:02:39;;;;;;;7.93;5.40;;;;;;;20.41;47.71;101884.53;5056897;28;20041;-63
2021/09/03 04:05:05;;;;;;;12.15;4.97;;;;;;;20.42;47.69;101886.22;5056973;28;20102;-63
2021/09/03 04:07:30;;;;;;;14.13;6.90;;;;;;;20.43;47.59;101894.25;5060318;28;20091;-63
2021/09/03 04:09:56;;;;;;;12.68;7.32;;;;;;;20.42;47.25;101891.66;5076073;28;20358;-63
2021/09/03 04:12:21;;;;;;;14.18;7.75;;;;;;;20.42;47.63;101888.94;5077281;28;20409;-63
2021/09/03 04:14:46;;;;;;;14.63;7.88;;;;;;;20.41;47.58;101889.97;5076302;28;20033;-63
2021/09/03 04:17:12;;;;;;;13.50;6.43;;;;;;;20.40;47.61;101894.56;5076496;28;20110;-63
2021/09/03 04:19:37;;;;;;;7.72;4.82;;;;;;;20.40;47.46;101885.53;5076037;28;20024;-63
2021/09/03 04:22:02;;;;;;;13.75;7.40;;;;;;;20.38;47.23;101891.13;5076324;28;20392;-63
2021/09/03 04:24:28;;;;;;;15.93;8.23;;;;;;;20.37;47.28;101883.16;5076570;28;20378;-63
2021/09/03 04:26:53;;;;;;;12.60;7.63;;;;;;;20.33;47.29;101888.94;5074792;28;20031;-63
2021/09/03 04:29:19;;;;;;;10.55;6.68;;;;;;;20.32;47.41;101884.50;5076353;28;20059;-63
2021/09/03 04:31:44;;;;;;;17.27;8.52;;;;;;;20.29;47.63;101884.84;5108278;28;20040;-63
2021/09/03 04:34:09;;;;;;;21.20;9.68;;;;;;;20.28;47.50;101891.31;5075774;28;20032;-63
2021/09/03 04:36:35;;;;;;;14.50;7.88;;;;;;;20.26;48.18;101885.19;5076553;28;20122;-63
2021/09/03 04:39:00;;;;;;;11.93;6.72;;;;;;;20.21;47.23;101882.06;5076509;28;20055;-63
2021/09/03 04:41:25;;;;;;;11.88;6.30;;;;;;;20.23;47.71;101882.75;5075011;28;20025;-63
2021/09/03 04:43:51;;;;;;;10.60;6.72;;;;;;;20.22;47.28;101882.91;5074682;28;20126;-63
2021/09/03 04:46:17;;;;;;;10.32;6.78;;;;;;;20.20;47.60;101883.09;5075970;28;20078;-63
2021/09/03 04:48:42;;;;;;;9.95;5.72;;;;;;;20.20;47.21;101885.81;5108787;28;20028;-63
2021/09/03 04:51:07;;;;;;;8.18;4.70;;;;;;;20.16;47.63;101881.69;5108261;28;20036;-63
2021/09/03 04:53:33;;;;;;;10.18;6.30;;;;;;;20.18;47.34;101885.09;5076551;28;20028;-63
2021/09/03 04:55:58;;;;;;;9.82;6.07;;;;;;;20.18;47.29;101890.53;5075083;28;20028;-63
2021/09/03 04:58:23;;;;;;;11.77;6.78;;;;;;;20.16;47.67;101889.88;5075680;28;20093;-63
2021/09/03 05:00:49;;;;;;;12.57;7.05;;;;;;;20.13;47.51;101881.19;5074060;28;20024;-63
2021/09/03 05:03:14;;;;;;;9.25;6.47;;;;;;;20.17;47.90;101888.00;5074867;28;20107;-63
2021/09/03 05:05:40;;;;;;;9.48;5.70;;;;;;;20.15;47.47;101884.59;5074416;28;20075;-63
2021/09/03 05:08:06;;;;;;;5.30;4.72;;;;;;;20.15;47.22;101885.47;5058247;28;20044;-63
2021/09/03 05:10:31;;;;;;;6.85;4.78;;;;;;;20.13;47.47;101884.75;5037048;28;20036;-63
2021/09/03 05:12:57;;;;;;;7.80;5.43;;;;;;;20.09;47.87;101872.50;5055478;28;20097;-63
2021/09/03 05:15:31;;;;;;;10.85;6.93;;;;;;;20.12;47.80;101880.34;5021400;28;20087;-63
2021/09/03 05:17:56;;;;;;;14.20;8.00;;;;;;;20.14;47.53;101888.34;5037704;28;20017;-63
2021/09/03 05:20:21;;;;;;;8.57;5.07;;;;;;;20.16;47.49;101880.84;5055057;28;20044;-63
2021/09/03 05:22:47;;;;;;;9.63;5.38;;;;;;;20.13;47.38;101871.16;5024115;28;20501;-63
2021/09/03 05:25:14;;;;;;;10.35;5.90;;;;;;;20.18;47.68;101885.09;5017713;28;20025;-63
2021/09/03 05:27:41;;;;;;;10.35;6.15;;;;;;;20.23;47.67;101880.03;5018233;28;20108;-63
2021/09/03 05:30:08;;;;;;;12.15;7.15;;;;;;;20.28;47.71;101885.00;5035799;28;20026;-63
2021/09/03 05:32:33;;;;;;;10.88;6.28;;;;;;;20.32;47.56;101879.06;5017775;28;20029;-62
2021/09/03 05:34:59;;;;;;;10.70;6.68;;;;;;;20.38;47.54;101882.16;5035571;28;20160;-63
2021/09/03 05:37:24;;;;;;;11.98;6.68;;;;;;;20.45;47.49;101880.44;5048538;28;20017;-63
2021/09/03 05:39:49;;;;;;;9.40;5.60;;;;;;;20.50;47.63;101878.06;5055050;28;20146;-63
2021/09/03 05:42:15;;;;;;;12.80;6.88;;;;;;;20.57;47.48;101887.28;5054636;28;20029;-63
2021/09/03 05:44:40;;;;;;;11.30;6.95;;;;;;;20.64;48.05;101889.16;5057432;28;20114;-63
2021/09/03 05:47:06;;;;;;;13.20;8.13;;;;;;;20.71;47.65;101881.16;5058454;28;20055;-63
2021/09/03 05:49:31;;;;;;;10.10;7.32;;;;;;;20.78;47.67;101882.19;5058779;28;20029;-63
2021/09/03 05:51:56;;;;;;;11.88;7.85;;;;;;;20.89;47.81;101881.84;5059657;28;20086;-63
2021/09/03 05:54:22;;;;;;;14.75;8.70;;;;;;;21.00;47.68;101881.50;5059455;28;20446;-62
2021/09/03 05:56:47;;;;;;;13.05;8.50;;;;;;;21.11;47.34;101878.44;5059188;28;20017;-63
2021/09/03 05:59:12;;;;;;;16.92;9.55;;;;;;;21.23;47.51;101874.34;5058963;28;20031;-62
2021/09/03 06:01:38;;;;;;;15.75;10.13;;;;;;;21.40;46.99;101878.75;5040730;28;20040;-62
2021/09/03 06:04:03;;;;;;;16.42;9.73;;;;;;;21.57;46.97;101878.72;5058284;28;20033;-63
2021/09/03 06:06:29;;;;;;;19.88;10.63;;;;;;;21.75;46.96;101876.59;5060462;28;20376;-62
2021/09/03 06:08:54;;;;;;;16.65;10.13;;;;;;;21.92;47.56;101872.81;5058192;28;20442;-63
2021/09/03 06:11:24;;;;;;;19.17;10.18;;;;;;;22.10;47.22;101875.28;5057906;28;20025;-63
2021/09/03 06:13:50;;;;;;;20.00;11.05;;;;;;;22.26;47.67;101869.72;5058404;28;20142;-63
2021/09/03 06:16:15;;;;;;;26.35;12.95;;;;;;;22.41;46.63;101863.31;5040990;28;20039;-63
2021/09/03 06:18:41;;;;;;;19.38;11.13;;;;;;;22.60;46.87;101879.22;5058550;28;20029;-64
2021/09/03 06:21:06;;;;;;;19.67;11.07;;;;;;;22.80;47.69;101874.16;5041027;28;20037;-63
2021/09/03 06:23:32;;;;;;;25.63;11.48;;;;;;;22.98;46.88;101871.94;5059224;28;20040;-63
2021/09/03 06:25:57;;;;;;;24.98;13.23;;;;;;;23.15;47.35;101873.50;5058497;28;20110;-63
2021/09/03 06:28:23;;;;;;;25.23;13.05;;;;;;;23.33;47.37;101864.94;5040888;28;20037;-62
2021/09/03 06:30:48;;;;;;;20.20;12.05;;;;;;;23.48;46.81;101868.56;5059169;28;20474;-63
2021/09/03 06:33:15;;;;;;;23.90;11.95;;;;;;;23.67;47.23;101876.19;5023972;28;20060;-63
2021/09/03 06:35:40;;;;;;;22.55;12.30;;;;;;;23.85;46.28;101867.59;5058191;28;20055;-63
2021/09/03 06:38:06;;;;;;;25.67;12.68;;;;;;;24.02;46.40;101877.31;5058396;28;20029;-63
2021/09/03 06:40:32;;;;;;;27.00;13.07;;;;;;;24.19;46.97;101877.97;5058146;28;20032;-63
2021/09/03 06:42:57;;;;;;;26.92;13.23;;;;;;;24.24;46.56;101853.59;5058634;28;20041;-63
2021/09/03 06:45:22;;;;;;;23.98;12.40;;;;;;;24.52;46.33;101873.69;5058364;28;20446;-63
2021/09/03 06:47:48;;;;;;;24.00;12.93;;;;;;;24.70;45.85;101873.25;5058868;28;20025;-63
2021/09/03 06:50:13;;;;;;;28.00;14.27;;;;;;;24.84;45.87;101873.22;5058737;28;20051;-63
2021/09/03 06:52:39;;;;;;;24.73;13.60;;;;;;;25.01;45.74;101873.78;5058779;28;20083;-63
2021/09/03 06:55:05;;;;;;;25.83;13.93;;;;;;;25.17;45.79;101864.41;5058040;28;20025;-63
2021/09/03 06:57:30;;;;;;;20.15;12.57;;;;;;;25.36;45.67;101877.41;5057926;28;20043;-63
2021/09/03 06:59:56;;;;;;;25.52;12.73;;;;;;;25.52;45.56;101873.56;5057951;28;20021;-63
2021/09/03 07:02:21;;;;;;;24.75;12.82;;;;;;;25.69;45.90;101870.28;5040393;28;20029;-63
2021/09/03 07:04:47;;;;;;;20.25;12.10;;;;;;;25.87;45.34;101869.75;5057798;28;20047;-61
2021/09/03 07:07:13;;;;;;;26.80;14.40;;;;;;;26.00;45.18;101867.91;5057461;28;20052;-61
2021/09/03 07:09:38;;;;;;;25.17;12.80;;;;;;;26.18;44.86;101870.13;5058143;28;20112;-61
2021/09/03 07:12:04;;;;;;;24.60;12.43;;;;;;;26.35;44.78;101865.97;5058116;28;20033;-62
2021/09/03 07:14:29;;;;;;;21.63;12.23;;;;;;;26.53;44.70;101865.34;5058279;28;20035;-61
2021/09/03 07:16:54;;;;;;;30.10;14.48;;;;;;;26.76;44.20;101874.06;5040429;28;20021;-61
2021/09/03 07:19:20;;;;;;;21.65;12.40;;;;;;;26.89;44.84;101865.00;5040251;28;20037;-61
2021/09/03 07:21:46;;;;;;;28.10;13.75;;;;;;;27.13;44.83;101870.72;5058130;28;20029;-61
2021/09/03 07:24:11;;;;;;;25.38;13.18;;;;;;;27.30;43.80;101868.38;5040277;28;20025;-61
2021/09/03 07:26:37;;;;;;;30.55;13.52;;;;;;;27.45;43.44;101869.00;5040332;28;20036;-61
2021/09/03 07:29:04;;;;;;;20.05;12.10;;;;;;;27.60;44.07;101863.25;5040093;28;20086;-61
2021/09/03 07:31:29;;;;;;;24.23;13.30;;;;;;;27.75;44.07;101863.84;5057626;28;20031;-61
2021/09/03 07:33:55;;;;;;;24.05;12.93;;;;;;;27.93;43.60;101858.50;5058243;28;20028;-61
2021/09/03 07:36:20;;;;;;;23.77;12.18;;;;;;;28.08;43.80;101867.38;5057636;28;20029;-61
2021/09/03 07:38:46;;;;;;;25.33;12.35;;;;;;;28.23;43.03;101859.66;5057553;28;20046;-61
2021/09/03 07:41:11;;;;;;;23.67;13.63;;;;;;;28.39;43.46;101862.97;5056946;28;20107;-61
2021/09/03 07:43:36;;;;;;;18.38;11.73;;;;;;;28.54;42.41;101856.06;5057608;28;20112;-60
2021/09/03 07:46:02;;;;;;;23.30;12.38;;;;;;;28.69;42.75;101861.31;5057227;28;20032;-61
2021/09/03 07:48:27;;;;;;;19.10;11.90;;;;;;;28.86;42.15;101865.22;5040079;28;20481;-62
2021/09/03 07:50:52;;;;;;;24.38;12.55;;;;;;;29.02;42.74;101856.38;5039187;28;20029;-61
2021/09/03 07:53:18;;;;;;;20.13;11.75;;;;;;;29.12;41.74;101851.19;5039018;28;20029;-62
2021/09/03 07:55:43;;;;;;;21.02;11.13;;;;;;;29.30;41.51;101856.78;5056957;28;20520;-61
2021/09/03 07:58:09;;;;;;;19.75;11.63;;;;;;;29.40;41.58;101851.56;5056270;28;20025;-61
2021/09/03 08:00:35;;;;;;;19.70;11.65;;;;;;;29.53;42.05;101850.59;5056389;28;20032;-61
2021/09/03 08:03:01;;;;;;;18.08;12.05;;;;;;;29.64;41.57;101851.75;5056292;28;20112;-61
2021/09/03 08:05:27;;;;;;;19.80;12.13;;;;;;;29.78;41.66;101854.13;5056400;28;20420;-61
2021/09/03 08:07:53;;;;;;;21.50;12.00;;;;;;;29.92;41.48;101849.31;5054792;28;20049;-62
2021/09/03 08:10:18;;;;;;;22.73;12.73;;;;;;;30.07;41.00;101852.50;5055391;28;20029;-61
2021/09/03 08:12:44;;;;;;;21.70;13.35;;;;;;;30.19;41.20;101839.59;5055549;28;20075;-61
2021/09/03 08:15:10;;;;;;;21.08;12.30;;;;;;;30.33;40.53;101840.25;5020985;28;20033;-62
2021/09/03 08:17:35;;;;;;;19.60;12.65;;;;;;;30.47;40.49;101841.78;5037560;28;20029;-61
2021/09/03 08:20:03;;;;;;;23.08;11.77;;;;;;;30.69;40.34;101847.59;5037497;28;20059;-62
2021/09/03 08:22:28;;;;;;;20.92;11.23;;;;;;;30.86;39.64;101837.53;5037036;28;20077;-63
2021/09/03 08:24:54;;;;;;;21.33;13.05;;;;;;;31.05;39.81;101841.91;5055879;28;20055;-61
2021/09/03 08:27:20;;;;;;;19.63;11.32;;;;;;;31.21;39.68;101838.44;5037619;28;20067;-62
2021/09/03 08:29:46;;;;;;;22.83;13.00;;;;;;;31.40;39.62;101837.22;5055445;28;20138;-61
2021/09/03 08:32:12;;;;;;;23.85;12.25;;;;;;;31.54;39.07;101832.31;5055101;28;20021;-62
2021/09/03 08:34:37;;;;;;;18.67;12.02;;;;;;;31.74;39.04;101831.91;5055691;28;20097;-62
2021/09/03 08:37:03;;;;;;;22.50;12.50;;;;;;;31.91;39.09;101838.38;5054995;28;20052;-61
2021/09/03 08:39:28;;;;;;;19.67;13.05;;;;;;;32.07;38.43;101834.84;5055190;28;20391;-61
2021/09/03 08:41:54;;;;;;;18.88;12.07;;;;;;;32.21;38.10;101833.47;5055363;28;20037;-62
2021/09/03 08:44:19;;;;;;;21.15;11.77;;;;;;;32.37;38.45;101840.97;5054399;28;20033;-62
2021/09/03 08:46:45;;;;;;;22.45;12.35;;;;;;;32.53;37.94;101831.84;5054478;28;20423;-61
2021/09/03 08:49:11;;;;;;;23.58;12.98;;;;;;;32.69;37.94;101839.38;5054886;28;20415;-62
2021/09/03 08:51:36;;;;;;;23.05;12.98;;;;;;;32.83;38.00;101837.13;5054519;28;20163;-62
2021/09/03 08:54:02;;;;;;;19.45;11.57;;;;;;;33.02;37.68;101835.78;5037011;28;20029;-61
2021/09/03 08:56:28;;;;;;;18.13;12.25;;;;;;;33.10;37.18;101827.06;5054893;28;20029;-61
2021/09/03 08:58:53;;;;;;;18.58;11.55;;;;;;;33.26;36.61;101836.44;5054722;28;20028;-61
2021/09/03 09:01:18;;;;;;;23.60;11.90;;;;;;;33.36;37.40;101825.50;5054784;28;20099;-62
2021/09/03 09:03:47;;;;;;;20.15;11.13;;;;;;;33.46;36.84;101836.75;5037520;28;20052;-63
2021/09/03 09:06:18;;;;;;;21.60;11.48;;;;;;;33.54;36.29;101827.97;5054759;28;20094;-62
2021/09/03 09:08:43;;;;;;;21.87;13.37;;;;;;;33.63;36.63;101823.69;5036309;28;20116;-61
2021/09/03 09:11:13;;;;;;;20.38;12.02;;;;;;;33.71;37.06;101827.94;5055109;28;20080;-62
2021/09/03 09:13:41;;;;;;;18.02;11.75;;;;;;;33.85;36.93;101829.22;5036863;28;20025;-62
2021/09/03 09:16:18;;;;;;;17.38;11.15;;;;;;;33.97;36.19;101828.00;5054867;28;20063;-62
2021/09/03 09:18:49;;;;;;;21.40;12.02;;;;;;;34.08;36.74;101823.44;5054516;28;20115;-62
2021/09/03 09:21:20;;;;;;;18.65;11.05;;;;;;;34.17;35.38;101816.31;5054551;28;20025;-61
2021/09/03 09:23:54;;;;;;;18.25;11.13;;;;;;;34.29;35.96;101813.34;5054226;28;20100;-62
2021/09/03 09:26:23;;;;;;;15.40;10.30;;;;;;;34.42;35.40;101813.75;5054682;28;20064;-61
2021/09/03 09:28:49;;;;;;;19.48;10.93;;;;;;;34.62;35.28;101809.53;5054731;28;20036;-62
2021/09/03 09:31:30;;;;;;;15.65;10.63;;;;;;;34.76;35.46;101808.81;5054419;28;20473;-62
2021/09/03 09:33:56;;;;;;;20.27;11.70;;;;;;;34.89;34.93;101813.97;5054175;28;20020;-62
2021/09/03 09:36:22;;;;;;;16.88;10.40;;;;;;;34.95;34.76;101801.72;5054085;28;20446;-62
2021/09/03 09:38:47;;;;;;;16.52;10.40;;;;;;;35.14;34.58;101806.91;5020669;28;20060;-62
2021/09/03 09:41:14;;;;;;;14.75;9.80;;;;;;;35.28;35.00;101816.47;5037045;28;20095;-62
2021/09/03 09:43:44;;;;;;;17.83;10.27;;;;;;;35.40;34.22;101804.00;5054312;28;20080;-62
2021/09/03 09:46:31;;;;;;;16.00;11.05;;;;;;;35.79;33.72;101807.31;5054366;28;20024;-62
2021/09/03 09:49:03;;;;;;;14.18;10.00;;;;;;;36.34;33.20;101817.81;5055333;28;20500;-62
2021/09/03 09:51:43;;;;;;;15.75;8.70;;;;;;;37.73;31.41;101800.38;5020023;28;20025;-62
2021/09/03 09:54:09;;;;;;;15.60;10.02;;;;;;;39.71;29.35;101800.44;5054737;28;20556;-63
2021/09/03 09:56:38;;;;;;;14.48;9.45;;;;;;;39.21;30.05;101793.44;5055015;28;20064;-62
2021/09/03 09:59:06;;;;;;;16.00;8.73;;;;;;;38.61;31.04;101788.38;5054568;28;20025;-62
2021/09/03 10:01:33;;;;;;;12.20;8.38;;;;;;;38.39;31.50;101786.84;5037483;28;20021;-63
2021/09/03 10:04:03;;;;;;;17.40;9.45;;;;;;;38.33;30.96;101792.81;5055150;28;20063;-63
2021/09/03 10:06:30;;;;;;;13.48;8.35;;;;;;;38.37;30.54;101789.13;5054624;28;20025;-62
2021/09/03 10:08:57;;;;;;;17.52;8.32;;;;;;;38.56;30.39;101788.44;5038100;28;20025;-62
2021/09/03 10:11:23;;;;;;;14.38;7.88;;;;;;;38.74;31.02;101784.88;5037181;28;20028;-62
2021/09/03 10:13:49;;;;;;;10.98;7.45;;;;;;;38.94;30.36;101779.97;5055292;28;20077;-62
2021/09/03 10:16:15;;;;;;;15.00;8.48;;;;;;;39.08;30.30;101776.47;5054684;28;20025;-62
2021/09/03 10:18:43;;;;;;;13.68;5.97;;;;;;;39.18;29.22;101773.53;5055096;28;20029;-62
2021/09/03 10:21:08;;;;;;;13.20;7.50;;;;;;;39.43;29.36;101774.13;5054510;28;20032;-62
2021/09/03 10:24:09;;;;;;;10.05;6.95;;;;;;;39.76;29.25;101765.88;5036706;28;20029;-62
2021/09/03 10:26:39;;;;;;;13.93;8.50;;;;;;;39.95;28.31;101763.91;5002062;28;20036;-62
2021/09/03 10:29:26;;;;;;;11.55;7.35;;;;;;;40.18;28.79;101763.00;5054804;28;20032;-62
2021/09/03 10:32:03;;;;;;;9.93;6.97;;;;;;;40.35;28.39;101766.13;5057723;28;20025;-62
2021/09/03 10:34:41;;;;;;;9.48;7.38;;;;;;;40.44;27.85;101767.09;5058249;28;20081;-62
2021/09/03 10:37:16;;;;;;;7.32;5.68;;;;;;;40.47;27.60;101763.69;5040032;28;20020;-62
2021/09/03 10:39:45;;;;;;;10.63;6.38;;;;;;;40.63;27.85;101764.25;5057991;28;20025;-63
2021/09/03 10:42:11;;;;;;;7.53;5.32;;;;;;;40.62;27.32;101757.81;5057577;28;20021;-63
2021/09/03 10:45:08;;;;;;;8.63;5.40;;;;;;;40.82;27.36;101762.22;5057603;28;20048;-62
2021/09/03 10:47:40;;;;;;;7.38;5.00;;;;;;;40.98;27.16;101766.47;5040034;28;20016;-63
2021/09/03 10:50:11;;;;;;;8.55;5.18;;;;;;;41.03;27.05;101755.13;5040029;28;20048;-62
2021/09/03 10:52:37;;;;;;;8.18;5.38;;;;;;;41.15;26.74;101754.63;5040267;28;20031;-63
2021/09/03 10:55:08;;;;;;;11.68;6.15;;;;;;;41.27;26.84;101746.47;5058363;28;20021;-64
2021/09/03 10:57:57;;;;;;;9.23;6.00;;;;;;;41.38;26.92;101742.34;5057828;28;20013;-63
2021/09/03 11:00:23;;;;;;;10.98;5.90;;;;;;;41.40;26.60;101745.69;5040367;28;20029;-63
2021/09/03 11:02:48;;;;;;;9.85;5.15;;;;;;;41.38;26.57;101735.91;5058134;28;20473;-64
2021/09/03 11:05:14;;;;;;;7.45;4.80;;;;;;;41.37;26.50;101737.88;5023290;28;20055;-63
2021/09/03 11:07:46;;;;;;;8.32;4.93;;;;;;;41.40;26.04;101736.41;5057575;28;20053;-62
2021/09/03 11:10:21;;;;;;;8.57;4.38;;;;;;;41.47;26.03;101723.56;5057715;28;20021;-62
2021/09/03 11:12:51;;;;;;;11.18;5.90;;;;;;;41.52;25.65;101731.06;5057484;28;20112;-62